createdAt,value
2017-09-07T00:05:52.157Z,57.60
2017-09-07T00:14:13.197Z,57.60
2017-09-07T00:22:34.233Z,58.30
2017-09-07T00:30:55.281Z,59.60
2017-09-07T00:39:16.313Z,58.80
2017-09-07T00:47:37.352Z,58.50
2017-09-07T00:55:59.152Z,56.70
2017-09-07T01:04:20.204Z,56.70
2017-09-07T01:12:41.262Z,58.10
2017-09-07T01:21:03.066Z,59.60
2017-09-07T01:29:24.862Z,59.20
2017-09-07T01:37:45.902Z,59.20
2017-09-07T01:46:06.941Z,60.70
2017-09-07T01:54:27.981Z,60.20
2017-09-07T02:02:49.025Z,60.30
2017-09-07T02:11:10.058Z,60.40
2017-09-07T02:19:31.835Z,63.00
2017-09-07T02:27:52.890Z,63.00
2017-09-07T02:36:13.929Z,64.30
2017-09-07T02:44:34.962Z,66.50
2017-09-07T02:52:56.747Z,68.30
2017-09-07T03:01:17.808Z,68.20
2017-09-07T03:09:38.860Z,68.80
2017-09-07T03:17:59.905Z,69.70
2017-09-07T03:26:20.954Z,73.20
2017-09-07T03:34:41.996Z,75.70
2017-09-07T03:43:03.046Z,76.60
2017-09-07T03:51:24.077Z,75.70
2017-09-07T03:59:45.109Z,75.90
2017-09-07T04:08:06.153Z,76.60
2017-09-07T04:16:27.204Z,77.50
2017-09-07T04:24:48.249Z,79.20
2017-09-07T04:33:09.289Z,81.00
2017-09-07T04:41:31.057Z,84.50
2017-09-07T04:49:52.628Z,84.50
2017-09-07T04:58:13.678Z,85.10
2017-09-07T05:06:34.717Z,81.90
2017-09-07T05:14:55.765Z,80.70
2017-09-07T05:23:17.793Z,79.10
2017-09-07T05:31:39.183Z,74.50
2017-09-07T05:40:00.240Z,70.80
2017-09-07T05:48:21.297Z,68.60
2017-09-07T05:56:42.378Z,68.90
2017-09-07T06:05:03.457Z,67.60
2017-09-07T06:13:25.246Z,63.90
2017-09-07T06:21:46.309Z,63.90
2017-09-07T06:30:07.378Z,63.20
2017-09-07T06:38:29.191Z,61.20
2017-09-07T06:46:50.268Z,61.10
2017-09-07T06:55:11.321Z,58.50
2017-09-07T07:03:32.372Z,54.50
2017-09-07T07:11:53.421Z,50.00
2017-09-07T07:20:14.474Z,47.00
2017-09-07T07:28:35.509Z,40.70
2017-09-07T07:36:56.562Z,43.40
2017-09-07T07:45:17.617Z,42.40
2017-09-07T07:53:38.677Z,40.60
2017-09-07T08:01:59.861Z,43.90
2017-09-07T08:10:20.929Z,36.40
2017-09-07T08:18:41.961Z,35.60
2017-09-07T08:27:03.013Z,36.40
2017-09-07T08:35:24.065Z,35.10
2017-09-07T08:43:45.155Z,35.60
2017-09-07T08:52:06.200Z,34.60
2017-09-07T09:00:27.236Z,32.70
2017-09-07T09:08:48.297Z,33.10
2017-09-07T09:17:09.348Z,33.30
2017-09-07T09:25:30.421Z,33.10
2017-09-07T09:33:51.465Z,30.90
2017-09-07T09:42:12.517Z,30.30
2017-09-07T09:50:33.572Z,29.80
2017-09-07T09:58:54.630Z,28.00
2017-09-07T10:07:15.713Z,27.00
2017-09-07T10:15:36.826Z,24.70
2017-09-07T10:23:57.877Z,25.40
2017-09-07T10:32:18.929Z,28.70
2017-09-07T10:40:40.005Z,31.60
2017-09-07T10:49:01.095Z,32.70
2017-09-07T10:57:22.157Z,34.30
2017-09-07T11:05:43.221Z,32.90
2017-09-07T11:14:04.252Z,29.10
2017-09-07T11:22:25.289Z,28.90
2017-09-07T11:30:46.349Z,27.60
2017-09-07T11:39:07.397Z,28.20
2017-09-07T11:47:28.465Z,25.90
2017-09-07T11:55:49.527Z,28.10
2017-09-07T12:04:10.626Z,28.50
2017-09-07T12:12:31.678Z,30.40
2017-09-07T12:20:52.718Z,32.50
2017-09-07T12:29:13.794Z,31.20
2017-09-07T12:37:34.862Z,31.20
2017-09-07T12:45:55.912Z,32.60
2017-09-07T12:54:16.974Z,35.00
2017-09-07T13:02:38.781Z,38.00
2017-09-07T13:10:59.829Z,38.00
2017-09-07T13:19:20.888Z,36.00
2017-09-07T13:27:41.941Z,32.40
2017-09-07T13:36:02.989Z,27.00
2017-09-07T13:44:24.061Z,29.00
2017-09-07T13:52:45.115Z,27.60
2017-09-07T14:01:06.910Z,29.00
2017-09-07T14:09:27.953Z,28.40
2017-09-07T14:17:49.004Z,29.20
2017-09-07T14:26:10.048Z,29.20
2017-09-07T14:34:31.097Z,28.10
2017-09-07T14:42:52.141Z,29.50
2017-09-07T14:51:13.222Z,32.20
2017-09-07T14:59:34.253Z,32.70
2017-09-07T15:07:55.293Z,30.70
2017-09-07T15:16:16.341Z,32.60
2017-09-07T15:24:37.378Z,31.80
2017-09-07T15:32:58.441Z,32.20
2017-09-07T15:41:19.493Z,33.10
2017-09-07T15:49:40.964Z,34.50
2017-09-07T15:58:02.009Z,33.30
2017-09-07T16:06:23.685Z,36.00
2017-09-07T16:14:44.740Z,37.50
2017-09-07T16:23:05.789Z,37.90
2017-09-07T16:31:26.832Z,37.60
2017-09-07T16:39:47.874Z,36.40
2017-09-07T16:48:08.942Z,35.10
2017-09-07T16:56:30.722Z,38.80
2017-09-07T17:04:51.771Z,38.80
2017-09-07T17:13:12.804Z,41.10
2017-09-07T17:21:33.881Z,42.40
2017-09-07T17:29:54.937Z,44.00
2017-09-07T17:38:15.974Z,45.60
2017-09-07T17:46:37.201Z,47.60
2017-09-07T17:54:58.280Z,49.80
2017-09-07T18:03:19.875Z,51.60
2017-09-07T18:11:40.909Z,51.30
2017-09-07T18:20:02.028Z,51.30
2017-09-07T18:28:23.877Z,51.70
2017-09-07T18:36:44.990Z,53.30
2017-09-07T18:45:06.832Z,58.00
2017-09-07T18:53:27.877Z,57.90
2017-09-07T19:01:48.985Z,61.90
2017-09-07T19:10:10.054Z,63.40
2017-09-07T19:18:31.093Z,65.70
2017-09-07T19:26:52.144Z,68.80
2017-09-07T19:35:13.202Z,71.10
2017-09-07T19:43:34.304Z,72.40
2017-09-07T19:51:56.148Z,77.40
2017-09-07T20:00:17.235Z,77.30
2017-09-07T20:08:39.249Z,77.60
2017-09-07T20:17:00.301Z,79.70
2017-09-07T20:25:21.383Z,81.40
2017-09-07T20:32:01.413Z,83.30
2017-09-07T20:37:02.454Z,84.20
2017-09-07T20:42:03.506Z,84.80
2017-09-07T20:47:04.565Z,85.60
2017-09-07T20:52:05.608Z,86.30
2017-09-07T20:57:06.669Z,85.70
2017-09-07T21:02:07.726Z,84.60
2017-09-07T21:07:08.782Z,85.30
2017-09-07T21:12:09.950Z,86.10
2017-09-07T21:17:10.985Z,87.00
2017-09-07T21:22:12.776Z,88.40
2017-09-07T21:27:13.825Z,88.40
2017-09-07T21:32:15.606Z,88.50
2017-09-07T21:37:16.661Z,88.50
2017-09-07T21:42:18.473Z,89.10
2017-09-07T21:47:19.544Z,89.10
2017-09-07T21:52:20.584Z,89.60
2017-09-07T21:57:21.658Z,90.00
2017-09-07T22:02:22.697Z,90.20
2017-09-07T22:07:23.802Z,90.40
2017-09-07T22:12:25.599Z,90.80
2017-09-07T22:17:27.378Z,91.00
2017-09-07T22:22:29.161Z,91.00
2017-09-07T22:27:30.200Z,91.00
2017-09-07T22:32:32.038Z,90.50
2017-09-07T22:37:33.845Z,89.50
2017-09-07T22:42:35.637Z,88.40
2017-09-07T22:47:36.672Z,88.40
2017-09-07T22:52:38.481Z,88.30
2017-09-07T22:57:39.529Z,87.70
2017-09-07T23:02:40.609Z,88.00
2017-09-07T23:07:41.670Z,89.10
2017-09-07T23:12:42.713Z,90.00
2017-09-07T23:17:43.765Z,90.10
2017-09-07T23:28:10.509Z,90.70
2017-09-07T23:33:11.562Z,90.80
2017-09-07T23:38:12.614Z,91.10
2017-09-07T23:43:13.667Z,91.20
2017-09-07T23:48:14.717Z,91.20
2017-09-07T23:53:15.765Z,91.30
2017-09-07T23:58:16.825Z,91.30
